Time;durP1;ratioP1;P1;durP2;ratioP2;P2;SDS_P1;SDS_P2;PMS_P1;PMS_P2;Temp;Humidity;BMP_temperature;BMP_pressure;BME280_temperature;BME280_humidity;BME280_pressure;Samples;Min_cycle;Max_cycle;Signal;HPM_P1;HPM_P2
2021/07/07 00:00:43;;;;;;;;;;;;;;;24.94;43.11;100186.41;3427675;28;20463;-71
2021/07/07 00:02:23;;;;;;;;;;;;;;;24.94;43.15;100185.59;3428233;28;20050;-71
2021/07/07 00:04:04;;;;;;;;;;;;;;;24.93;43.31;100192.13;3428874;28;19980;-73
2021/07/07 00:05:44;;;;;;;;;;;;;;;24.92;43.09;100196.75;3428869;28;19969;-73
2021/07/07 00:07:25;;;;;;;;;;;;;;;24.91;43.19;100189.69;3427759;28;20017;-73
2021/07/07 00:09:05;;;;;;;;;;;;;;;24.90;43.08;100192.69;3422693;28;19926;-73
2021/07/07 00:10:46;;;;;;;;;;;;;;;24.88;43.11;100186.69;3415064;28;20377;-72
2021/07/07 00:12:27;;;;;;;;;;;;;;;24.88;43.25;100190.22;3413835;29;19926;-74
2021/07/07 00:14:07;;;;;;;;;;;;;;;24.89;43.54;100193.78;3414972;29;19941;-72
2021/07/07 00:15:48;;;;;;;;;;;;;;;24.89;43.21;100200.03;3415455;28;19926;-73
2021/07/07 00:17:28;;;;;;;;;;;;;;;24.90;43.21;100192.69;3415458;28;19926;-73
2021/07/07 00:19:09;;;;;;;;;;;;;;;24.89;43.44;100202.78;3415359;28;20397;-73
2021/07/07 00:20:55;;;;;;;;;;;;;;;24.89;43.30;100200.03;3415208;28;20016;-72
2021/07/07 00:22:36;;;;;;;;;;;;;;;24.87;43.42;100198.69;3422305;28;19933;-73
2021/07/07 00:24:16;;;;;;;;;;;;;;;24.87;43.27;100195.97;3441161;28;20416;-73
2021/07/07 00:25:57;;;;;;;;;;;;;;;24.87;43.19;100193.22;3431245;28;19926;-72
2021/07/07 00:27:38;;;;;;;;;;;;;;;24.87;43.31;100204.13;3428692;28;20393;-73
2021/07/07 00:29:18;;;;;;;;;;;;;;;24.86;43.39;100197.88;3428612;28;20025;-73
2021/07/07 00:30:59;;;;;;;;;;;;;;;24.86;43.23;100197.03;3427437;28;19933;-73
2021/07/07 00:32:39;;;;;;;;;;;;;;;24.85;43.35;100206.31;3427949;28;19933;-72
2021/07/07 00:34:20;;;;;;;;;;;;;;;24.83;43.16;100201.13;3427717;28;19926;-72
2021/07/07 00:36:13;;;;;;;;;;;;;;;24.83;43.25;100213.94;3428569;28;19926;-73
2021/07/07 00:37:54;;;;;;;;;;;;;;;24.80;43.33;100207.94;3428524;28;19925;-73
2021/07/07 00:39:34;;;;;;;;;;;;;;;24.80;43.28;100218.84;3428414;28;19926;-74
2021/07/07 00:41:15;;;;;;;;;;;;;;;24.79;43.22;100219.97;3428289;28;19926;-73
2021/07/07 00:42:55;;;;;;;;;;;;;;;24.78;43.52;100218.34;3427669;28;19926;-73
2021/07/07 00:44:38;;;;;;;;;;;;;;;24.78;43.52;100217.50;3427689;28;19926;-74
2021/07/07 00:46:18;;;;;;;;;;;;;;;24.76;43.16;100217.78;3428312;28;19926;-72
2021/07/07 00:47:59;;;;;;;;;;;;;;;24.76;43.40;100222.44;3428350;28;19932;-72
2021/07/07 00:49:41;;;;;;;;;;;;;;;24.75;43.50;100224.31;3427451;28;20384;-73
2021/07/07 00:51:21;;;;;;;;;;;;;;;24.74;43.60;100222.69;3428235;28;19933;-72
2021/07/07 00:53:02;;;;;;;;;;;;;;;24.74;43.49;100221.88;3427976;28;19926;-73
2021/07/07 00:54:43;;;;;;;;;;;;;;;24.71;43.48;100223.25;3428128;28;19949;-73
2021/07/07 00:56:23;;;;;;;;;;;;;;;24.71;43.69;100223.25;3427185;28;19933;-73
2021/07/07 00:58:04;;;;;;;;;;;;;;;24.71;43.64;100227.91;3424783;28;19930;-73
2021/07/07 00:59:45;;;;;;;;;;;;;;;24.70;43.41;100232.50;3428276;28;19953;-73
2021/07/07 01:01:26;;;;;;;;;;;;;;;24.67;43.71;100232.25;3427960;28;19926;-73
2021/07/07 01:03:06;;;;;;;;;;;;;;;24.67;43.73;100232.25;3427496;28;20392;-73
2021/07/07 01:04:47;;;;;;;;;;;;;;;24.68;43.80;100233.88;3427406;28;19933;-72
2021/07/07 01:06:28;;;;;;;;;;;;;;;24.66;43.77;100236.91;3428422;28;19965;-72
2021/07/07 01:08:10;;;;;;;;;;;;;;;24.66;43.56;100236.09;3428253;28;19926;-73
2021/07/07 01:09:50;;;;;;;;;;;;;;;24.64;43.86;100233.63;3426975;28;19933;-72
2021/07/07 01:11:32;;;;;;;;;;;;;;;24.65;43.78;100232.53;3428305;28;19926;-72
2021/07/07 01:13:13;;;;;;;;;;;;;;;24.64;43.84;100233.63;3428224;28;19933;-72
2021/07/07 01:14:54;;;;;;;;;;;;;;;24.62;43.87;100233.06;3427673;28;20466;-72
2021/07/07 01:16:35;;;;;;;;;;;;;;;24.61;44.02;100234.19;3428122;28;19930;-73
2021/07/07 01:18:16;;;;;;;;;;;;;;;24.62;44.10;100240.44;3428322;28;19933;-72
2021/07/07 01:19:57;;;;;;;;;;;;;;;24.62;43.81;100235.81;3427883;28;19933;-72
2021/07/07 01:21:42;;;;;;;;;;;;;;;24.62;43.91;100235.00;3428238;28;19926;-73
2021/07/07 01:23:22;;;;;;;;;;;;;;;24.61;43.89;100231.44;3428009;28;19930;-73
2021/07/07 01:25:04;;;;;;;;;;;;;;;24.62;44.00;100235.00;3427659;28;20333;-73
2021/07/07 01:26:44;;;;;;;;;;;;;;;24.62;43.87;100237.72;3427177;28;19984;-72
2021/07/07 01:28:25;;;;;;;;;;;;;;;24.61;44.00;100236.91;3427980;28;19926;-73
2021/07/07 01:30:07;;;;;;;;;;;;;;;24.60;44.11;100243.44;3428170;28;19933;-71
2021/07/07 01:31:48;;;;;;;;;;;;;;;24.61;44.10;100247.00;3428240;28;20395;-73
2021/07/07 01:33:28;;;;;;;;;;;;;;;24.60;43.97;100251.59;3427917;28;19925;-72
2021/07/07 01:35:09;;;;;;;;;;;;;;;24.61;44.17;100245.09;3427934;28;19926;-72
2021/07/07 01:36:50;;;;;;;;;;;;;;;24.60;44.09;100254.31;3427985;28;19926;-72
2021/07/07 01:38:30;;;;;;;;;;;;;;;24.61;44.16;100252.44;3428038;28;19934;-71
2021/07/07 01:40:12;;;;;;;;;;;;;;;24.60;44.08;100248.88;3428288;28;19925;-72
2021/07/07 01:41:53;;;;;;;;;;;;;;;24.59;44.13;100250.78;3428441;28;19933;-72
2021/07/07 01:43:33;;;;;;;;;;;;;;;24.61;44.29;100252.44;3429522;28;20264;-72
2021/07/07 01:45:14;;;;;;;;;;;;;;;24.61;44.30;100261.44;3430489;28;19926;-72
2021/07/07 01:46:54;;;;;;;;;;;;;;;24.63;44.39;100261.97;3430479;28;19926;-72
2021/07/07 01:48:35;;;;;;;;;;;;;;;24.63;44.22;100264.72;3430132;28;20273;-72
2021/07/07 01:50:16;;;;;;;;;;;;;;;24.66;44.38;100268.81;3430408;28;19933;-72
2021/07/07 01:51:57;;;;;;;;;;;;;;;24.67;44.53;100264.97;3430444;28;19929;-73
2021/07/07 01:53:37;;;;;;;;;;;;;;;24.67;44.49;100271.22;3430466;28;19933;-72
2021/07/07 01:55:18;;;;;;;;;;;;;;;24.69;44.40;100274.50;3430780;28;20316;-72
2021/07/07 01:56:59;;;;;;;;;;;;;;;24.69;44.37;100269.06;3430246;28;19933;-72
2021/07/07 01:58:39;;;;;;;;;;;;;;;24.70;44.55;100267.94;3430169;28;19981;-72
2021/07/07 02:00:27;;;;;;;;;;;;;;;24.71;44.64;100274.25;3430227;28;19925;-73
2021/07/07 02:02:08;;;;;;;;;;;;;;;24.70;44.53;100276.13;3430393;28;19969;-74
2021/07/07 02:03:48;;;;;;;;;;;;;;;24.72;44.46;100273.94;3430664;28;20352;-73
2021/07/07 02:05:30;;;;;;;;;;;;;;;24.74;44.53;100271.78;3430096;28;19925;-72
2021/07/07 02:07:11;;;;;;;;;;;;;;;24.75;44.60;100275.31;3425281;28;19926;-72
2021/07/07 02:08:52;;;;;;;;;;;;;;;24.74;44.52;100277.22;3424194;28;19926;-73
2021/07/07 02:10:32;;;;;;;;;;;;;;;24.76;44.68;100276.97;3424645;28;19923;-72
2021/07/07 02:12:13;;;;;;;;;;;;;;;24.76;44.60;100279.69;3417221;28;20017;-73
2021/07/07 02:13:53;;;;;;;;;;;;;;;24.76;44.60;100275.06;3416713;28;20400;-72
2021/07/07 02:15:34;;;;;;;;;;;;;;;24.76;44.61;100279.69;3416983;28;19933;-72
2021/07/07 02:17:15;;;;;;;;;;;;;;;24.76;44.38;100282.41;3416817;28;19926;-73
2021/07/07 02:18:55;;;;;;;;;;;;;;;24.75;44.78;100278.03;3426014;28;19973;-72
2021/07/07 02:20:39;;;;;;;;;;;;;;;24.76;44.63;100285.97;3418916;28;19929;-73
2021/07/07 02:22:20;;;;;;;;;;;;;;;24.77;44.66;100287.59;3416777;28;19969;-73
2021/07/07 02:24:00;;;;;;;;;;;;;;;24.79;44.35;100279.94;3416870;28;19929;-72
2021/07/07 02:25:44;;;;;;;;;;;;;;;24.83;44.26;100287.56;3416836;28;20378;-73
2021/07/07 02:27:25;;;;;;;;;;;;;;;24.83;44.30;100291.13;3416722;28;19923;-73
2021/07/07 02:29:05;;;;;;;;;;;;;;;24.83;44.18;100287.56;3426920;28;19926;-73
2021/07/07 02:30:46;;;;;;;;;;;;;;;24.81;44.19;100288.69;3429132;28;19926;-73
2021/07/07 02:32:26;;;;;;;;;;;;;;;24.82;44.04;100289.50;3429638;28;20377;-73
2021/07/07 02:34:07;;;;;;;;;;;;;;;24.84;44.07;100290.03;3430087;28;19931;-74
2021/07/07 02:35:48;;;;;;;;;;;;;;;24.86;44.22;100298.78;3430062;28;20005;-74
2021/07/07 02:37:30;;;;;;;;;;;;;;;24.87;44.13;100294.94;3429117;28;19976;-73
2021/07/07 02:39:10;;;;;;;;;;;;;;;24.88;44.04;100298.47;3421079;28;19931;-73
2021/07/07 02:40:52;;;;;;;;;;;;;;;24.89;44.07;100290.03;3416409;28;20412;-72
2021/07/07 02:42:32;;;;;;;;;;;;;;;24.91;44.28;100292.47;3416634;28;19926;-73
2021/07/07 02:44:13;;;;;;;;;;;;;;;24.92;44.08;100299.56;3416707;28;19933;-73
2021/07/07 02:45:54;;;;;;;;;;;;;;;24.92;44.04;100294.94;3416379;28;20917;-73
2021/07/07 02:47:34;;;;;;;;;;;;;;;24.94;44.12;100300.13;3416283;28;19926;-72
2021/07/07 02:49:15;;;;;;;;;;;;;;;24.95;43.96;100305.28;3428755;28;19932;-73
2021/07/07 02:50:55;;;;;;;;;;;;;;;24.97;44.04;100307.75;3429640;28;20316;-72
2021/07/07 02:52:40;;;;;;;;;;;;;;;24.97;43.96;100302.28;3429831;28;19926;-72
2021/07/07 02:54:20;;;;;;;;;;;;;;;24.98;43.79;100304.72;3428776;28;20324;-73
2021/07/07 02:56:01;;;;;;;;;;;;;;;25.00;44.00;100307.19;3429946;28;19926;-72
2021/07/07 02:57:57;;;;;;;;;;;;;;;25.03;43.94;100303.91;3429274;28;19926;-74
2021/07/07 02:59:37;;;;;;;;;;;;;;;25.05;43.86;100303.66;3415548;28;20296;-74
2021/07/07 03:01:20;;;;;;;;;;;;;;;25.06;43.80;100308.00;3415019;29;19928;-73
2021/07/07 03:03:05;;;;;;;;;;;;;;;25.06;43.83;100300.63;3416139;29;19926;-73
2021/07/07 03:04:47;;;;;;;;;;;;;;;25.08;43.72;100314.81;3416432;28;19926;-73
2021/07/07 03:06:27;;;;;;;;;;;;;;;25.08;43.66;100303.91;3416258;28;19927;-73
2021/07/07 03:08:09;;;;;;;;;;;;;;;25.11;43.76;100313.44;3420890;28;19976;-73
2021/07/07 03:09:49;;;;;;;;;;;;;;;25.11;43.55;100308.78;3416174;28;19966;-72
2021/07/07 03:11:30;;;;;;;;;;;;;;;25.13;43.54;100301.16;3416222;28;19926;-73
2021/07/07 03:13:11;;;;;;;;;;;;;;;25.14;43.60;100316.41;3415295;29;20112;-71
2021/07/07 03:14:51;;;;;;;;;;;;;;;25.12;43.48;100315.91;3417417;28;19926;-72
2021/07/07 03:16:32;;;;;;;;;;;;;;;25.10;43.38;100317.28;3429708;28;19926;-74
2021/07/07 03:18:13;;;;;;;;;;;;;;;25.08;43.52;100317.53;3418790;28;20053;-73
2021/07/07 03:19:54;;;;;;;;;;;;;;;25.09;43.26;100318.34;3415876;28;19926;-72
2021/07/07 03:21:34;;;;;;;;;;;;;;;25.06;43.26;100311.53;3416107;28;20033;-72
2021/07/07 03:23:18;;;;;;;;;;;;;;;25.06;43.19;100317.00;3416107;28;19965;-73
2021/07/07 03:24:59;;;;;;;;;;;;;;;25.08;43.29;100314.81;3416239;28;20082;-72
2021/07/07 03:26:40;;;;;;;;;;;;;;;25.13;43.29;100324.91;3416487;28;20350;-72
2021/07/07 03:28:21;;;;;;;;;;;;;;;25.15;43.43;100315.34;3426952;28;20305;-72
2021/07/07 03:30:05;;;;;;;;;;;;;;;25.19;43.05;100316.44;3416084;28;20433;-72
2021/07/07 03:31:46;;;;;;;;;;;;;;;25.22;43.39;100318.66;3416169;28;20322;-71
2021/07/07 03:33:26;;;;;;;;;;;;;;;25.25;42.87;100320.00;3416143;28;19934;-71
2021/07/07 03:35:08;;;;;;;;;;;;;;;25.28;43.00;100322.16;3416038;28;19926;-72
2021/07/07 03:36:49;;;;;;;;;;;;;;;25.32;43.10;100325.97;3416976;28;20316;-72
2021/07/07 03:38:29;;;;;;;;;;;;;;;25.39;42.97;100322.97;3424721;28;19927;-71
2021/07/07 03:40:10;;;;;;;;;;;;;;;25.41;42.91;100339.88;3415429;28;19926;-72
2021/07/07 03:41:50;;;;;;;;;;;;;;;25.43;43.00;100332.22;3402560;29;19927;-73
2021/07/07 03:43:31;;;;;;;;;;;;;;;25.44;42.99;100328.41;3402934;29;19927;-73
2021/07/07 03:45:13;;;;;;;;;;;;;;;25.46;42.74;100337.13;3402982;29;19934;-72
2021/07/07 03:46:53;;;;;;;;;;;;;;;25.49;42.62;100335.75;3414823;29;19969;-73
2021/07/07 03:48:34;;;;;;;;;;;;;;;25.50;42.72;100335.47;3427397;28;19953;-70
2021/07/07 03:50:15;;;;;;;;;;;;;;;25.53;42.60;100337.66;3427978;28;19984;-71
2021/07/07 03:51:55;;;;;;;;;;;;;;;25.53;42.60;100336.81;3415794;28;19927;-71
2021/07/07 03:53:36;;;;;;;;;;;;;;;25.56;42.64;100344.47;3415632;28;19964;-73
2021/07/07 03:55:17;;;;;;;;;;;;;;;25.58;42.74;100345.84;3414472;29;20282;-72
2021/07/07 03:56:58;;;;;;;;;;;;;;;25.60;42.71;100343.63;3416489;28;19934;-72
2021/07/07 03:58:38;;;;;;;;;;;;;;;25.66;42.78;100344.41;3428490;28;19926;-72
2021/07/07 04:00:23;;;;;;;;;;;;;;;25.70;42.45;100341.97;3428940;28;19926;-73
2021/07/07 04:02:03;;;;;;;;;;;;;;;25.74;42.51;100343.03;3415393;28;20393;-73
2021/07/07 04:03:44;;;;;;;;;;;;;;;25.77;42.48;100350.69;3415276;28;19926;-72
2021/07/07 04:05:25;;;;;;;;;;;;;;;25.80;42.50;100341.91;3415213;28;19931;-74
2021/07/07 04:07:05;;;;;;;;;;;;;;;25.79;42.38;100352.03;3415536;28;19926;-73
2021/07/07 04:08:46;;;;;;;;;;;;;;;25.79;42.01;100345.72;3427790;28;20032;-72
2021/07/07 04:10:26;;;;;;;;;;;;;;;25.81;41.89;100349.00;3428155;28;20304;-72
2021/07/07 04:12:07;;;;;;;;;;;;;;;25.81;42.19;100349.81;3416228;28;20004;-73
2021/07/07 04:13:47;;;;;;;;;;;;;;;25.82;41.97;100350.66;3415253;29;19964;-72
2021/07/07 04:15:29;;;;;;;;;;;;;;;25.82;42.03;100346.00;3415185;28;19976;-71
2021/07/07 04:17:10;;;;;;;;;;;;;;;25.85;41.91;100352.84;3415472;28;19997;-72
2021/07/07 04:18:52;;;;;;;;;;;;;;;25.87;41.93;100347.94;3427198;28;20308;-72
2021/07/07 04:20:33;;;;;;;;;;;;;;;25.89;41.88;100351.19;3428514;28;19926;-72
2021/07/07 04:22:14;;;;;;;;;;;;;;;25.91;41.68;100357.19;3418011;28;19927;-73
2021/07/07 04:23:54;;;;;;;;;;;;;;;25.92;41.55;100347.06;3415365;28;20027;-72
2021/07/07 04:25:35;;;;;;;;;;;;;;;25.94;41.59;100353.06;3421704;28;20304;-71
2021/07/07 04:27:15;;;;;;;;;;;;;;;25.97;41.70;100357.97;3428649;28;19997;-72
2021/07/07 04:28:56;;;;;;;;;;;;;;;26.00;41.52;100358.25;3427301;28;19927;-72
2021/07/07 04:30:37;;;;;;;;;;;;;;;26.01;41.64;100353.59;3428180;28;19934;-72
2021/07/07 04:32:17;;;;;;;;;;;;;;;26.04;41.86;100369.41;3417207;28;19926;-72
2021/07/07 04:34:00;;;;;;;;;;;;;;;26.08;41.47;100363.13;3417452;28;19942;-72
2021/07/07 04:35:41;;;;;;;;;;;;;;;26.15;41.62;100364.72;3428574;28;19926;-72
2021/07/07 04:37:21;;;;;;;;;;;;;;;26.19;41.37;100361.13;3428162;28;19933;-72
2021/07/07 04:39:05;;;;;;;;;;;;;;;26.19;41.17;100357.59;3427938;28;20393;-73
2021/07/07 04:40:46;;;;;;;;;;;;;;;26.19;41.38;100363.06;3427642;28;19929;-73
2021/07/07 04:42:26;;;;;;;;;;;;;;;26.17;40.98;100363.34;3416609;28;20013;-71
2021/07/07 04:44:07;;;;;;;;;;;;;;;26.18;41.20;100366.91;3413157;28;20072;-72
2021/07/07 04:45:48;;;;;;;;;;;;;;;26.16;40.95;100371.81;3424923;28;20293;-71
2021/07/07 04:47:29;;;;;;;;;;;;;;;26.14;41.21;100368.56;3414935;28;19930;-71
2021/07/07 04:49:09;;;;;;;;;;;;;;;26.17;40.94;100373.44;3413728;29;20017;-71
2021/07/07 04:50:50;;;;;;;;;;;;;;;26.21;40.93;100369.06;3416679;28;19981;-71
2021/07/07 04:52:30;;;;;;;;;;;;;;;26.25;40.84;100370.94;3415926;28;20385;-72
2021/07/07 04:54:11;;;;;;;;;;;;;;;26.29;40.74;100377.47;3424992;28;19926;-72
2021/07/07 04:55:51;;;;;;;;;;;;;;;26.30;40.98;100370.91;3428284;28;19964;-72
2021/07/07 04:57:40;;;;;;;;;;;;;;;26.33;40.85;100366.78;3425705;28;19926;-72
2021/07/07 04:59:21;;;;;;;;;;;;;;;26.38;40.52;100372.22;3415520;28;19927;-73
2021/07/07 05:01:01;;;;;;;;;;;;;;;26.43;40.40;100361.25;3420372;28;20276;-72
2021/07/07 05:02:42;;;;;;;;;;;;;;;26.48;40.47;100369.41;3415397;28;20464;-72
2021/07/07 05:04:23;;;;;;;;;;;;;;;26.53;40.60;100361.22;3420620;28;20389;-72
2021/07/07 05:06:03;;;;;;;;;;;;;;;26.58;40.27;100367.75;3428592;28;19930;-73
2021/07/07 05:07:44;;;;;;;;;;;;;;;26.63;40.34;100365.00;3427426;28;19926;-73
2021/07/07 05:09:25;;;;;;;;;;;;;;;26.68;40.14;100370.41;3414746;28;19934;-70
2021/07/07 05:11:05;;;;;;;;;;;;;;;26.73;40.45;100375.84;3414930;28;20037;-72
2021/07/07 05:12:46;;;;;;;;;;;;;;;26.77;39.86;100371.44;3415108;29;20405;-72
2021/07/07 05:14:26;;;;;;;;;;;;;;;26.78;39.84;100373.06;3416169;28;20409;-73
2021/07/07 05:16:07;;;;;;;;;;;;;;;26.81;39.59;100377.97;3427823;28;19976;-73
2021/07/07 05:17:48;;;;;;;;;;;;;;;26.81;39.65;100377.16;3423989;28;19936;-71
2021/07/07 05:19:30;;;;;;;;;;;;;;;26.79;39.75;100374.69;3430830;28;20305;-72
2021/07/07 05:21:12;;;;;;;;;;;;;;;26.80;39.31;100375.50;3430925;28;19961;-73
2021/07/07 05:22:52;;;;;;;;;;;;;;;26.81;39.31;100379.88;3430806;28;19926;-72
2021/07/07 05:24:33;;;;;;;;;;;;;;;26.85;39.46;100376.31;3430520;28;19952;-73
2021/07/07 05:26:13;;;;;;;;;;;;;;;26.90;39.75;100381.72;3430440;28;19926;-72
2021/07/07 05:27:54;;;;;;;;;;;;;;;26.92;39.52;100379.50;3424735;28;19976;-73
2021/07/07 05:29:34;;;;;;;;;;;;;;;26.98;39.04;100386.59;3430626;28;20312;-73
2021/07/07 05:31:15;;;;;;;;;;;;;;;27.05;39.31;100377.22;3422657;28;20022;-72
2021/07/07 05:32:57;;;;;;;;;;;;;;;27.08;38.90;100384.84;3417376;28;19933;-72
2021/07/07 05:34:39;;;;;;;;;;;;;;;27.13;39.44;100388.38;3417145;28;20353;-72
2021/07/07 05:36:19;;;;;;;;;;;;;;;27.18;38.84;100387.53;3416471;29;20456;-72
2021/07/07 05:38:00;;;;;;;;;;;;;;;27.23;39.17;100389.41;3420012;28;19926;-71
2021/07/07 05:39:40;;;;;;;;;;;;;;;27.26;38.63;100388.81;3423040;28;19949;-72
2021/07/07 05:41:21;;;;;;;;;;;;;;;27.31;38.70;100392.34;3417297;28;19934;-71
2021/07/07 05:43:03;;;;;;;;;;;;;;;27.38;38.64;100391.97;3417167;28;20286;-71
2021/07/07 05:44:44;;;;;;;;;;;;;;;27.44;38.70;100396.28;3416276;28;19973;-73
2021/07/07 05:46:24;;;;;;;;;;;;;;;27.52;38.38;100392.09;3419590;28;19989;-74
2021/07/07 05:48:05;;;;;;;;;;;;;;;27.55;38.51;100392.34;3427117;28;20455;-73
2021/07/07 05:49:45;;;;;;;;;;;;;;;27.58;38.24;100397.25;3418128;28;19933;-73
2021/07/07 05:51:26;;;;;;;;;;;;;;;27.61;38.23;100395.84;3419635;28;20028;-73
2021/07/07 05:53:06;;;;;;;;;;;;;;;27.65;37.81;100398.81;3430322;28;20451;-72
2021/07/07 05:54:47;;;;;;;;;;;;;;;27.70;37.75;100394.13;3430438;28;20027;-73
2021/07/07 05:56:27;;;;;;;;;;;;;;;27.75;37.82;100396.78;3421707;28;19965;-74
2021/07/07 05:58:08;;;;;;;;;;;;;;;27.82;38.00;100396.47;3417672;28;19926;-71
2021/07/07 05:59:48;;;;;;;;;;;;;;;27.88;37.71;100405.44;3430392;28;19961;-72
2021/07/07 06:01:30;;;;;;;;;;;;;;;27.91;37.76;100411.16;3417962;28;20297;-71
2021/07/07 06:03:11;;;;;;;;;;;;;;;27.93;37.10;100408.09;3415937;29;19926;-72
2021/07/07 06:04:51;;;;;;;;;;;;;;;27.96;37.23;100404.78;3426798;28;19926;-75
2021/07/07 06:06:32;;;;;;;;;;;;;;;28.00;36.94;100403.09;3417334;28;20416;-71
2021/07/07 06:08:13;;;;;;;;;;;;;;;28.03;37.15;100394.28;3416666;28;19926;-71
2021/07/07 06:09:53;;;;;;;;;;;;;;;28.07;37.21;100400.00;3416256;28;20017;-71
2021/07/07 06:11:34;;;;;;;;;;;;;;;28.10;36.58;100394.72;3419636;28;19926;-71
2021/07/07 06:13:14;;;;;;;;;;;;;;;28.15;36.81;100393.84;3429720;28;19926;-71
2021/07/07 06:14:55;;;;;;;;;;;;;;;28.19;36.48;100395.72;3429598;28;19959;-73
2021/07/07 06:16:36;;;;;;;;;;;;;;;28.23;36.26;100396.75;3428081;28;19955;-72
2021/07/07 06:18:16;;;;;;;;;;;;;;;28.29;36.51;100397.47;3429788;28;20068;-72
2021/07/07 06:19:57;;;;;;;;;;;;;;;28.35;36.84;100403.72;3429917;28;20385;-71
2021/07/07 06:21:37;;;;;;;;;;;;;;;28.39;36.23;100402.00;3418706;28;19948;-72
2021/07/07 06:23:18;;;;;;;;;;;;;;;28.42;36.41;100406.91;3424916;28;20017;-71
2021/07/07 06:24:59;;;;;;;;;;;;;;;28.45;35.74;100403.63;3416900;28;19926;-71
2021/07/07 06:26:39;;;;;;;;;;;;;;;28.49;36.19;100404.63;3417131;28;19930;-72
2021/07/07 06:28:20;;;;;;;;;;;;;;;28.53;36.04;100405.69;3416048;28;19926;-71
2021/07/07 06:30:00;;;;;;;;;;;;;;;28.60;35.77;100406.09;3424091;28;19926;-71
2021/07/07 06:31:41;;;;;;;;;;;;;;;28.69;35.87;100409.81;3429458;28;19926;-71
2021/07/07 06:33:21;;;;;;;;;;;;;;;28.77;35.34;100410.25;3429292;28;20384;-71
2021/07/07 06:35:02;;;;;;;;;;;;;;;28.86;35.45;100413.94;3425456;28;19933;-70
2021/07/07 06:36:43;;;;;;;;;;;;;;;28.95;34.78;100403.94;3416689;28;19951;-72
2021/07/07 06:38:23;;;;;;;;;;;;;;;29.02;35.18;100409.84;3414794;29;20065;-71
2021/07/07 06:40:05;;;;;;;;;;;;;;;29.10;35.14;100408.38;3415393;28;19930;-73
2021/07/07 06:41:45;;;;;;;;;;;;;;;29.18;34.45;100404.94;3423571;28;19926;-73
2021/07/07 06:43:26;;;;;;;;;;;;;;;29.25;34.33;100412.75;3419832;28;19981;-71
2021/07/07 06:45:07;;;;;;;;;;;;;;;29.33;33.54;100406.59;3413927;28;20290;-71
2021/07/07 06:46:48;;;;;;;;;;;;;;;29.41;33.77;100405.91;3414764;29;20551;-72
2021/07/07 06:48:28;;;;;;;;;;;;;;;29.49;34.22;100415.38;3416442;29;19926;-71
2021/07/07 06:50:10;;;;;;;;;;;;;;;29.52;33.41;100412.00;3416734;28;19932;-72
2021/07/07 06:51:52;;;;;;;;;;;;;;;29.60;33.92;100413.25;3425144;28;20405;-71
2021/07/07 06:53:33;;;;;;;;;;;;;;;29.66;33.01;100410.13;3429944;28;19926;-73
2021/07/07 06:55:14;;;;;;;;;;;;;;;29.75;33.56;100410.22;3419584;28;19977;-72
2021/07/07 06:56:54;;;;;;;;;;;;;;;29.79;33.00;100411.22;3415908;29;20384;-73
2021/07/07 06:58:35;;;;;;;;;;;;;;;29.83;32.49;100415.00;3436019;28;19980;-73
2021/07/07 07:00:16;;;;;;;;;;;;;;;29.89;32.77;100413.75;3431565;28;19968;-74
2021/07/07 07:01:56;;;;;;;;;;;;;;;29.95;32.44;100415.31;3414855;28;20017;-73
2021/07/07 07:03:37;;;;;;;;;;;;;;;30.04;32.60;100420.09;3423021;28;20374;-73
2021/07/07 07:05:19;;;;;;;;;;;;;;;30.10;32.11;100424.34;3414643;29;20464;-73
2021/07/07 07:06:59;;;;;;;;;;;;;;;30.16;32.50;100415.69;3416053;29;20397;-71
2021/07/07 07:08:40;;;;;;;;;;;;;;;30.24;32.24;100416.13;3418062;28;19922;-72
2021/07/07 07:10:20;;;;;;;;;;;;;;;30.32;32.15;100407.94;3414428;29;20029;-74
2021/07/07 07:12:01;;;;;;;;;;;;;;;30.40;32.24;100409.94;3411893;29;19958;-72
2021/07/07 07:13:42;;;;;;;;;;;;;;;30.47;31.98;100414.22;3426875;28;20368;-71
2021/07/07 07:15:22;;;;;;;;;;;;;;;30.50;31.88;100421.84;3414368;29;20089;-71
2021/07/07 07:17:03;;;;;;;;;;;;;;;30.52;31.72;100409.41;3415229;28;20095;-72
2021/07/07 07:18:43;;;;;;;;;;;;;;;30.56;31.93;100421.41;3415688;28;19997;-72
2021/07/07 07:20:27;;;;;;;;;;;;;;;30.57;31.91;100403.81;3416067;29;19926;-71
2021/07/07 07:22:08;;;;;;;;;;;;;;;30.65;31.77;100407.75;3416173;28;19927;-72
2021/07/07 07:23:48;;;;;;;;;;;;;;;30.73;31.91;100406.19;3421439;28;19981;-73
2021/07/07 07:25:29;;;;;;;;;;;;;;;30.81;31.65;100406.28;3428817;28;20349;-71
2021/07/07 07:27:09;;;;;;;;;;;;;;;30.88;31.84;100408.59;3428994;28;19933;-72
2021/07/07 07:28:50;;;;;;;;;;;;;;;30.93;31.37;100410.38;3421536;28;20298;-72
2021/07/07 07:30:33;;;;;;;;;;;;;;;30.96;31.12;100418.03;3427551;28;19965;-72
2021/07/07 07:32:14;;;;;;;;;;;;;;;31.00;31.59;100408.00;3414911;28;19926;-71
2021/07/07 07:33:55;;;;;;;;;;;;;;;31.07;31.43;100405.63;3415507;29;19977;-75
2021/07/07 07:35:35;;;;;;;;;;;;;;;31.10;31.44;100404.19;3417538;28;19926;-75
2021/07/07 07:37:24;;;;;;;;;;;;;;;31.12;31.51;100393.69;3427796;28;19933;-72
2021/07/07 07:39:08;;;;;;;;;;;;;;;31.17;30.97;100405.38;3427716;28;19926;-73
2021/07/07 07:40:50;;;;;;;;;;;;;;;31.26;30.61;100403.50;3412169;28;20043;-73
2021/07/07 07:42:30;;;;;;;;;;;;;;;31.37;30.60;100400.47;3413494;28;19976;-73
2021/07/07 07:44:11;;;;;;;;;;;;;;;31.50;30.51;100399.56;3412827;28;20547;-72
2021/07/07 07:45:55;;;;;;;;;;;;;;;31.64;30.67;100397.50;3413816;29;20021;-73
2021/07/07 07:47:37;;;;;;;;;;;;;;;31.79;30.77;100406.50;3414667;28;19964;-72
2021/07/07 07:49:18;;;;;;;;;;;;;;;31.89;30.79;100408.97;3414034;28;19930;-72
2021/07/07 07:50:58;;;;;;;;;;;;;;;31.97;30.60;100413.69;3413209;28;19969;-73
2021/07/07 07:52:41;;;;;;;;;;;;;;;31.96;29.93;100411.25;3414688;28;19933;-73
2021/07/07 07:54:22;;;;;;;;;;;;;;;31.96;30.09;100414.84;3412486;28;21382;-74
2021/07/07 07:56:03;;;;;;;;;;;;;;;31.99;30.00;100410.63;3413783;29;20028;-74
2021/07/07 07:57:44;;;;;;;;;;;;;;;32.05;29.78;100410.16;3414178;28;19926;-72
2021/07/07 07:59:25;;;;;;;;;;;;;;;32.07;30.02;100407.88;3413693;28;21757;-73
2021/07/07 08:01:05;;;;;;;;;;;;;;;32.19;30.09;100417.47;3414012;28;20053;-75
2021/07/07 08:02:46;;;;;;;;;;;;;;;32.25;29.46;100418.97;3414077;28;19926;-74
2021/07/07 08:04:27;;;;;;;;;;;;;;;32.31;29.62;100418.47;3414217;28;19933;-74
2021/07/07 08:06:11;;;;;;;;;;;;;;;32.40;29.66;100421.25;3414353;28;20386;-74
2021/07/07 08:07:51;;;;;;;;;;;;;;;32.49;29.67;100430.38;3413266;28;19926;-73
2021/07/07 08:09:32;;;;;;;;;;;;;;;32.65;29.31;100414.13;3410481;29;19933;-74
2021/07/07 08:11:12;;;;;;;;;;;;;;;32.79;29.06;100425.00;3413487;28;20025;-74
2021/07/07 08:12:53;;;;;;;;;;;;;;;32.94;29.30;100418.16;3413599;28;19926;-74
2021/07/07 08:14:36;;;;;;;;;;;;;;;33.07;29.20;100421.91;3413982;28;20345;-76
2021/07/07 08:16:18;;;;;;;;;;;;;;;33.17;28.77;100416.03;3414043;28;19927;-77
2021/07/07 08:17:58;;;;;;;;;;;;;;;33.27;28.64;100429.50;3414161;28;20030;-77
2021/07/07 08:19:39;;;;;;;;;;;;;;;33.37;28.73;100420.84;3414073;28;19926;-78
2021/07/07 08:21:20;;;;;;;;;;;;;;;33.44;28.94;100423.91;3410620;28;19962;-75
2021/07/07 08:23:00;;;;;;;;;;;;;;;33.49;29.23;100431.22;3411755;29;19981;-75
2021/07/07 08:24:43;;;;;;;;;;;;;;;33.50;29.32;100434.78;3413624;28;19938;-75
2021/07/07 08:26:23;;;;;;;;;;;;;;;33.50;29.75;100427.31;3413560;28;19926;-76
2021/07/07 08:28:04;;;;;;;;;;;;;;;33.49;29.20;100428.47;3415581;28;20025;-76
2021/07/07 08:29:45;;;;;;;;;;;;;;;33.53;29.25;100429.41;3411294;28;19926;-77
2021/07/07 08:31:25;;;;;;;;;;;;;;;33.60;29.38;100437.22;3415894;28;19926;-71
2021/07/07 08:33:06;;;;;;;;;;;;;;;33.65;28.80;100431.50;3425850;28;19926;-76
2021/07/07 08:34:46;;;;;;;;;;;;;;;33.77;29.21;100439.91;3416963;28;19926;-75
2021/07/07 08:36:28;;;;;;;;;;;;;;;33.86;28.65;100435.13;3423234;28;20308;-73
2021/07/07 08:38:09;;;;;;;;;;;;;;;33.96;28.88;100438.69;3421184;28;19938;-72